Terminal Aerodrome Forecast
Issued by NWS

Home | Current Version | Previous Version | Text Only | Print | Product List | Glossary On
Versions: 1 2 3 4 5 6 7 8 9 10 11 12 13 14 15 16 17 18 19 20
000
FTUS43 KDLH 280500
TAFHIB
TAF
KHIB 280520Z 2806/2906 VRB03KT P6SM SCT050
     FM281700 35007KT P6SM SCT050
     FM281900 35010KT P6SM VCSH BKN050
     FM290100 33004KT P6SM SCT100=

USA.gov is the U.S. government's official web portal to all federal, state and local government web resources and services.